sensor_id;sensor_type;location;lat;lon;timestamp;pressure;altitude;pressure_sealevel;temperature;humidity
39105;BME280;46464;51.154;13.812;2023-08-12T00:02:13;51917.22;;;-146.96;89.29
39105;BME280;46464;51.154;13.812;2023-08-12T00:04:40;51915.19;;;-146.96;89.53
39105;BME280;46464;51.154;13.812;2023-08-12T00:07:06;51923.34;;;-146.96;89.55
39105;BME280;46464;51.154;13.812;2023-08-12T00:09:33;51919.28;;;-146.96;89.11
39105;BME280;46464;51.154;13.812;2023-08-12T00:12:00;51929.44;;;-146.96;88.77
39105;BME280;46464;51.154;13.812;2023-08-12T00:14:26;51939.63;;;-146.96;88.50
39105;BME280;46464;51.154;13.812;2023-08-12T00:16:53;51931.47;;;-146.96;88.50
39105;BME280;46464;51.154;13.812;2023-08-12T00:19:19;51947.75;;;-146.96;88.65
39105;BME280;46464;51.154;13.812;2023-08-12T00:21:46;51937.56;;;-146.96;88.61
39105;BME280;46464;51.154;13.812;2023-08-12T00:24:12;51943.69;;;-146.96;87.78
39105;BME280;46464;51.154;13.812;2023-08-12T00:26:39;51949.78;;;-146.96;86.86
39105;BME280;46464;51.154;13.812;2023-08-12T00:29:05;51898.91;;;-146.96;86.19
39105;BME280;46464;51.154;13.812;2023-08-12T00:31:32;51921.31;;;-146.96;86.02
39105;BME280;46464;51.154;13.812;2023-08-12T00:33:58;51917.22;;;-146.96;85.95
39105;BME280;46464;51.154;13.812;2023-08-12T00:36:26;51947.75;;;-146.96;85.97
39105;BME280;46464;51.154;13.812;2023-08-12T00:38:53;51955.88;;;-146.96;85.98
39105;BME280;46464;51.154;13.812;2023-08-12T00:41:19;51931.47;;;-146.96;86.06
39105;BME280;46464;51.154;13.812;2023-08-12T00:43:46;51907.06;;;-146.96;86.02
39105;BME280;46464;51.154;13.812;2023-08-12T00:46:12;51903.00;;;-146.96;86.13
39105;BME280;46464;51.154;13.812;2023-08-12T00:48:40;51931.47;;;-146.96;86.25
39105;BME280;46464;51.154;13.812;2023-08-12T00:51:07;51925.38;;;-146.96;86.38
39105;BME280;46464;51.154;13.812;2023-08-12T00:53:33;51976.22;;;-146.96;86.44
39105;BME280;46464;51.154;13.812;2023-08-12T00:56:19;51896.88;;;-146.96;86.85
39105;BME280;46464;51.154;13.812;2023-08-12T00:58:45;51939.63;;;-146.96;86.61
39105;BME280;46464;51.154;13.812;2023-08-12T01:01:12;51953.84;;;-146.96;86.68
39105;BME280;46464;51.154;13.812;2023-08-12T01:03:39;51933.50;;;-146.96;86.75
39105;BME280;46464;51.154;13.812;2023-08-12T01:06:07;51931.47;;;-146.96;86.79
39105;BME280;46464;51.154;13.812;2023-08-12T01:08:34;51882.66;;;-146.96;87.07
39105;BME280;46464;51.154;13.812;2023-08-12T01:13:58;51939.63;;;-146.96;87.09
39105;BME280;46464;51.154;13.812;2023-08-12T01:16:31;51931.47;;;-146.96;87.53
39105;BME280;46464;51.154;13.812;2023-08-12T01:19:00;51919.28;;;-146.96;87.47
39105;BME280;46464;51.154;13.812;2023-08-12T01:21:29;51976.22;;;-146.96;87.12
39105;BME280;46464;51.154;13.812;2023-08-12T01:23:56;51896.88;;;-146.96;87.05
39105;BME280;46464;51.154;13.812;2023-08-12T01:26:23;51935.53;;;-146.96;87.15
39105;BME280;46464;51.154;13.812;2023-08-12T01:28:50;51896.88;;;-146.96;87.18
39105;BME280;46464;51.154;13.812;2023-08-12T01:31:34;51953.84;;;-146.96;87.13
39105;BME280;46464;51.154;13.812;2023-08-12T01:34:12;51913.16;;;-146.96;87.26
39105;BME280;46464;51.154;13.812;2023-08-12T01:36:46;51959.97;;;-146.96;87.33
39105;BME280;46464;51.154;13.812;2023-08-12T01:39:19;51945.72;;;-146.96;87.33
39105;BME280;46464;51.154;13.812;2023-08-12T01:41:46;51937.56;;;-146.96;87.58
39105;BME280;46464;51.154;13.812;2023-08-12T01:44:12;51921.31;;;-146.96;87.75
39105;BME280;46464;51.154;13.812;2023-08-12T01:46:39;51947.75;;;-146.96;87.97
39105;BME280;46464;51.154;13.812;2023-08-12T01:49:05;51953.84;;;-146.96;88.74
39105;BME280;46464;51.154;13.812;2023-08-12T01:51:32;51982.34;;;-146.96;88.52
39105;BME280;46464;51.154;13.812;2023-08-12T01:53:58;51919.28;;;-146.96;88.31
39105;BME280;46464;51.154;13.812;2023-08-12T01:56:25;51931.47;;;-146.96;87.76
39105;BME280;46464;51.154;13.812;2023-08-12T01:58:52;51925.38;;;-146.96;86.35
39105;BME280;46464;51.154;13.812;2023-08-12T02:01:18;51880.63;;;-146.96;84.44
39105;BME280;46464;51.154;13.812;2023-08-12T02:03:45;51860.25;;;-146.96;81.23
39105;BME280;46464;51.154;13.812;2023-08-12T02:06:11;51856.19;;;-146.96;78.65
39105;BME280;46464;51.154;13.812;2023-08-12T02:08:38;51864.34;;;-146.96;76.63
39105;BME280;46464;51.154;13.812;2023-08-12T02:11:04;51919.28;;;-146.96;75.33
39105;BME280;46464;51.154;13.812;2023-08-12T02:13:31;51827.72;;;-146.96;74.02
39105;BME280;46464;51.154;13.812;2023-08-12T02:15:57;51811.44;;;-146.96;72.95
39105;BME280;46464;51.154;13.812;2023-08-12T02:18:24;51856.19;;;-146.96;71.88
39105;BME280;46464;51.154;13.812;2023-08-12T02:20:50;51817.53;;;-146.96;71.38
39105;BME280;46464;51.154;13.812;2023-08-12T02:23:17;51837.88;;;-146.96;70.36
39105;BME280;46464;51.154;13.812;2023-08-12T02:25:43;51837.88;;;-146.96;70.08
39105;BME280;46464;51.154;13.812;2023-08-12T02:28:11;51854.16;;;-146.96;70.85
39105;BME280;46464;51.154;13.812;2023-08-12T02:30:37;51841.97;;;-146.96;71.85
39105;BME280;46464;51.154;13.812;2023-08-12T02:33:04;51829.75;;;-146.96;72.33
39105;BME280;46464;51.154;13.812;2023-08-12T02:35:32;51850.09;;;-146.96;73.20
39105;BME280;46464;51.154;13.812;2023-08-12T02:37:58;51858.22;;;-146.96;73.61
39105;BME280;46464;51.154;13.812;2023-08-12T02:40:25;51821.63;;;-146.96;72.63
39105;BME280;46464;51.154;13.812;2023-08-12T02:42:51;51872.47;;;-146.96;71.79
39105;BME280;46464;51.154;13.812;2023-08-12T02:45:18;51807.38;;;-146.96;70.89
39105;BME280;46464;51.154;13.812;2023-08-12T02:47:44;51829.75;;;-146.96;70.23
39105;BME280;46464;51.154;13.812;2023-08-12T02:50:11;51839.91;;;-146.96;70.15
39105;BME280;46464;51.154;13.812;2023-08-12T02:55:33;51872.47;;;-146.96;71.16
39105;BME280;46464;51.154;13.812;2023-08-12T02:58:02;51829.75;;;-146.96;69.80
39105;BME280;46464;51.154;13.812;2023-08-12T03:00:33;51819.56;;;-146.96;69.05
39105;BME280;46464;51.154;13.812;2023-08-12T03:03:02;51829.75;;;-146.96;68.61
39105;BME280;46464;51.154;13.812;2023-08-12T03:05:32;51805.34;;;-146.96;68.19
39105;BME280;46464;51.154;13.812;2023-08-12T03:08:01;51825.69;;;-146.96;68.53
39105;BME280;46464;51.154;13.812;2023-08-12T03:10:35;51797.19;;;-146.96;67.90
39105;BME280;46464;51.154;13.812;2023-08-12T03:13:13;51821.63;;;-146.96;67.81
39105;BME280;46464;51.154;13.812;2023-08-12T03:15:43;51785.00;;;-146.96;67.39
39105;BME280;46464;51.154;13.812;2023-08-12T03:18:17;51789.06;;;-146.96;68.15
39105;BME280;46464;51.154;13.812;2023-08-12T03:21:12;51825.69;;;-146.96;68.81
39105;BME280;46464;51.154;13.812;2023-08-12T03:23:44;51825.69;;;-146.96;69.54
39105;BME280;46464;51.154;13.812;2023-08-12T03:26:21;51793.13;;;-146.96;70.89
39105;BME280;46464;51.154;13.812;2023-08-12T03:28:54;51829.75;;;-146.96;72.10
39105;BME280;46464;51.154;13.812;2023-08-12T03:31:27;51890.78;;;-146.96;73.42
39105;BME280;46464;51.154;13.812;2023-08-12T03:33:58;51837.88;;;-146.96;74.09
39105;BME280;46464;51.154;13.812;2023-08-12T03:36:27;51882.66;;;-146.96;74.65
39105;BME280;46464;51.154;13.812;2023-08-12T03:38:59;51890.78;;;-146.96;75.07
39105;BME280;46464;51.154;13.812;2023-08-12T03:41:52;51874.50;;;-146.96;75.80
39105;BME280;46464;51.154;13.812;2023-08-12T03:44:23;51876.53;;;-146.96;76.09
39105;BME280;46464;51.154;13.812;2023-08-12T03:46:54;51892.81;;;-146.96;76.73
39105;BME280;46464;51.154;13.812;2023-08-12T03:49:32;51898.91;;;-146.96;77.21
39105;BME280;46464;51.154;13.812;2023-08-12T03:52:03;51915.19;;;-146.96;77.85
39105;BME280;46464;51.154;13.812;2023-08-12T03:54:37;51927.41;;;-146.96;78.25
39105;BME280;46464;51.154;13.812;2023-08-12T03:57:08;51915.19;;;-146.96;77.83
39105;BME280;46464;51.154;13.812;2023-08-12T03:59:39;51880.63;;;-146.96;77.18
39105;BME280;46464;51.154;13.812;2023-08-12T04:02:07;51890.78;;;-146.96;76.18
39105;BME280;46464;51.154;13.812;2023-08-12T04:04:36;51858.22;;;-146.96;75.11
39105;BME280;46464;51.154;13.812;2023-08-12T04:07:09;51870.44;;;-146.96;74.24
39105;BME280;46464;51.154;13.812;2023-08-12T04:09:39;51898.91;;;-146.96;73.92
39105;BME280;46464;51.154;13.812;2023-08-12T04:12:09;51844.00;;;-146.96;73.64
39105;BME280;46464;51.154;13.812;2023-08-12T04:14:37;51868.41;;;-146.96;73.47
39105;BME280;46464;51.154;13.812;2023-08-12T04:17:06;51886.72;;;-146.96;73.35
39105;BME280;46464;51.154;13.812;2023-08-12T04:19:36;51811.44;;;-146.96;72.98
39105;BME280;46464;51.154;13.812;2023-08-12T04:22:06;51872.47;;;-146.96;71.86
39105;BME280;46464;51.154;13.812;2023-08-12T04:24:35;51827.72;;;-146.96;71.34
39105;BME280;46464;51.154;13.812;2023-08-12T04:27:07;51854.16;;;-146.96;71.30
39105;BME280;46464;51.154;13.812;2023-08-12T04:29:37;51819.56;;;-146.96;71.33
39105;BME280;46464;51.154;13.812;2023-08-12T04:32:06;51844.00;;;-146.96;71.03
39105;BME280;46464;51.154;13.812;2023-08-12T04:34:36;51841.97;;;-146.96;70.75
39105;BME280;46464;51.154;13.812;2023-08-12T04:37:05;51817.53;;;-146.96;70.31
39105;BME280;46464;51.154;13.812;2023-08-12T04:39:36;51833.81;;;-146.96;69.68
39105;BME280;46464;51.154;13.812;2023-08-12T04:42:09;51844.00;;;-146.96;69.76
39105;BME280;46464;51.154;13.812;2023-08-12T04:44:40;51825.69;;;-146.96;69.29
39105;BME280;46464;51.154;13.812;2023-08-12T04:47:11;51835.84;;;-146.96;69.44
39105;BME280;46464;51.154;13.812;2023-08-12T04:49:45;51813.47;;;-146.96;69.34
39105;BME280;46464;51.154;13.812;2023-08-12T04:52:15;51772.78;;;-146.96;69.42
39105;BME280;46464;51.154;13.812;2023-08-12T04:54:45;51768.72;;;-146.96;69.22
39105;BME280;46464;51.154;13.812;2023-08-12T04:57:17;51780.91;;;-146.96;68.92
39105;BME280;46464;51.154;13.812;2023-08-12T04:59:49;51776.84;;;-146.96;68.75
39105;BME280;46464;51.154;13.812;2023-08-12T05:02:18;51770.75;;;-146.96;68.45
39105;BME280;46464;51.154;13.812;2023-08-12T05:04:50;51801.25;;;-146.96;68.33
39105;BME280;46464;51.154;13.812;2023-08-12T05:07:20;51754.47;;;-146.96;67.90
39105;BME280;46464;51.154;13.812;2023-08-12T05:09:53;51768.72;;;-146.96;68.15
39105;BME280;46464;51.154;13.812;2023-08-12T05:12:23;51785.00;;;-146.96;67.92
39105;BME280;46464;51.154;13.812;2023-08-12T05:14:56;51754.47;;;-146.96;68.16
39105;BME280;46464;51.154;13.812;2023-08-12T05:17:26;51768.72;;;-146.96;67.91
39105;BME280;46464;51.154;13.812;2023-08-12T05:19:59;51811.44;;;-146.96;67.88
39105;BME280;46464;51.154;13.812;2023-08-12T05:22:31;51762.63;;;-146.96;67.94
39105;BME280;46464;51.154;13.812;2023-08-12T05:25:03;51801.25;;;-146.96;68.25
39105;BME280;46464;51.154;13.812;2023-08-12T05:27:33;51776.84;;;-146.96;68.46
39105;BME280;46464;51.154;13.812;2023-08-12T05:30:04;51768.72;;;-146.96;68.41
39105;BME280;46464;51.154;13.812;2023-08-12T05:32:36;51776.84;;;-146.96;67.86
39105;BME280;46464;51.154;13.812;2023-08-12T05:35:10;51746.34;;;-146.96;68.29
39105;BME280;46464;51.154;13.812;2023-08-12T05:37:42;51742.28;;;-146.96;67.86
39105;BME280;46464;51.154;13.812;2023-08-12T05:40:16;51705.66;;;-146.96;67.11
39105;BME280;46464;51.154;13.812;2023-08-12T05:42:49;51770.75;;;-146.96;66.36
39105;BME280;46464;51.154;13.812;2023-08-12T05:45:19;51780.91;;;-146.96;66.84
39105;BME280;46464;51.154;13.812;2023-08-12T05:47:50;51719.88;;;-146.96;67.07
39105;BME280;46464;51.154;13.812;2023-08-12T05:50:22;51679.19;;;-146.96;65.15
39105;BME280;46464;51.154;13.812;2023-08-12T05:52:51;51691.41;;;-146.96;64.59
39105;BME280;46464;51.154;13.812;2023-08-12T05:55:23;51703.63;;;-146.96;62.55
39105;BME280;46464;51.154;13.812;2023-08-12T05:57:54;51669.03;;;-146.96;60.24
39105;BME280;46464;51.154;13.812;2023-08-12T06:00:21;51669.03;;;-146.96;61.01
39105;BME280;46464;51.154;13.812;2023-08-12T06:02:49;51669.03;;;-146.96;59.05
39105;BME280;46464;51.154;13.812;2023-08-12T06:05:19;51648.69;;;-146.96;59.19
39105;BME280;46464;51.154;13.812;2023-08-12T06:07:46;51636.47;;;-146.96;58.83
39105;BME280;46464;51.154;13.812;2023-08-12T06:10:16;51650.72;;;-146.96;59.42
39105;BME280;46464;51.154;13.812;2023-08-12T06:12:45;51642.59;;;-146.96;60.46
39105;BME280;46464;51.154;13.812;2023-08-12T06:15:14;51618.16;;;-146.96;60.49
39105;BME280;46464;51.154;13.812;2023-08-12T06:17:43;51597.81;;;-146.96;60.13
39105;BME280;46464;51.154;13.812;2023-08-12T06:20:15;51632.41;;;-146.96;57.23
39105;BME280;46464;51.154;13.812;2023-08-12T06:22:44;51601.91;;;-146.96;58.14
39105;BME280;46464;51.154;13.812;2023-08-12T06:25:12;51575.44;;;-146.96;57.98
39105;BME280;46464;51.154;13.812;2023-08-12T06:27:41;51599.84;;;-146.96;55.81
39105;BME280;46464;51.154;13.812;2023-08-12T06:30:08;51593.75;;;-146.96;56.47
39105;BME280;46464;51.154;13.812;2023-08-12T06:32:36;51567.31;;;-146.96;55.26
39105;BME280;46464;51.154;13.812;2023-08-12T06:35:07;51557.13;;;-146.96;55.75
39105;BME280;46464;51.154;13.812;2023-08-12T06:37:35;51597.81;;;-146.96;55.38
39105;BME280;46464;51.154;13.812;2023-08-12T06:40:06;51532.72;;;-146.96;54.73
39105;BME280;46464;51.154;13.812;2023-08-12T06:42:33;51546.97;;;-146.96;54.49
39105;BME280;46464;51.154;13.812;2023-08-12T06:45:00;51534.75;;;-146.96;54.02
39105;BME280;46464;51.154;13.812;2023-08-12T06:47:27;51534.75;;;-146.96;53.07
39105;BME280;46464;51.154;13.812;2023-08-12T06:49:56;51514.41;;;-146.96;53.50
39105;BME280;46464;51.154;13.812;2023-08-12T06:52:23;51522.56;;;-146.96;53.44
39105;BME280;46464;51.154;13.812;2023-08-12T06:54:49;51575.44;;;-146.96;51.71
39105;BME280;46464;51.154;13.812;2023-08-12T06:57:16;51512.38;;;-146.96;52.82
39105;BME280;46464;51.154;13.812;2023-08-12T06:59:44;51536.78;;;-146.96;54.02
39105;BME280;46464;51.154;13.812;2023-08-12T07:02:11;51549.00;;;-146.96;54.10
39105;BME280;46464;51.154;13.812;2023-08-12T07:04:39;51555.09;;;-146.96;55.09
39105;BME280;46464;51.154;13.812;2023-08-12T07:07:07;51532.72;;;-146.96;55.19
39105;BME280;46464;51.154;13.812;2023-08-12T07:09:39;51518.47;;;-146.96;54.56
39105;BME280;46464;51.154;13.812;2023-08-12T07:12:12;51514.41;;;-146.96;54.56
39105;BME280;46464;51.154;13.812;2023-08-12T07:14:41;51475.75;;;-146.96;53.42
39105;BME280;46464;51.154;13.812;2023-08-12T07:17:18;51536.78;;;-146.96;54.76
39105;BME280;46464;51.154;13.812;2023-08-12T07:19:52;51516.44;;;-146.96;53.93
39105;BME280;46464;51.154;13.812;2023-08-12T07:22:18;51502.22;;;-146.96;53.51
39105;BME280;46464;51.154;13.812;2023-08-12T07:24:47;51508.31;;;-146.96;54.64
39105;BME280;46464;51.154;13.812;2023-08-12T07:27:14;51516.44;;;-146.96;54.34
39105;BME280;46464;51.154;13.812;2023-08-12T07:29:41;51516.44;;;-146.96;54.49
39105;BME280;46464;51.154;13.812;2023-08-12T07:32:08;51559.16;;;-146.96;55.26
39105;BME280;46464;51.154;13.812;2023-08-12T07:34:37;51524.59;;;-146.96;55.08
39105;BME280;46464;51.154;13.812;2023-08-12T07:37:12;51538.81;;;-146.96;55.54
39105;BME280;46464;51.154;13.812;2023-08-12T07:39:58;51508.31;;;-146.96;55.42
39105;BME280;46464;51.154;13.812;2023-08-12T07:42:30;51516.44;;;-146.96;54.90
39105;BME280;46464;51.154;13.812;2023-08-12T07:45:18;51510.34;;;-146.96;55.91
39105;BME280;46464;51.154;13.812;2023-08-12T07:47:52;51514.41;;;-146.96;56.48
39105;BME280;46464;51.154;13.812;2023-08-12T07:50:21;51469.66;;;-146.96;54.05
39105;BME280;46464;51.154;13.812;2023-08-12T07:52:48;51483.91;;;-146.96;52.22
39105;BME280;46464;51.154;13.812;2023-08-12T07:55:15;51422.88;;;-146.96;53.37
39105;BME280;46464;51.154;13.812;2023-08-12T07:57:44;51487.97;;;-146.96;54.51
39105;BME280;46464;51.154;13.812;2023-08-12T08:00:13;51467.63;;;-146.96;52.72
39105;BME280;46464;51.154;13.812;2023-08-12T08:02:43;51376.09;;;-146.96;53.20
39105;BME280;46464;51.154;13.812;2023-08-12T08:05:13;51416.78;;;-146.96;52.77
39105;BME280;46464;51.154;13.812;2023-08-12T08:07:40;51372.03;;;-146.96;51.24
39105;BME280;46464;51.154;13.812;2023-08-12T08:10:06;51396.44;;;-146.96;49.31
39105;BME280;46464;51.154;13.812;2023-08-12T08:12:33;51410.66;;;-146.96;49.79
39105;BME280;46464;51.154;13.812;2023-08-12T08:15:00;51378.13;;;-146.96;49.56
39105;BME280;46464;51.154;13.812;2023-08-12T08:17:26;51398.47;;;-146.96;50.28
39105;BME280;46464;51.154;13.812;2023-08-12T08:19:53;51416.78;;;-146.96;49.01
39105;BME280;46464;51.154;13.812;2023-08-12T08:22:19;51388.28;;;-146.96;49.56
39105;BME280;46464;51.154;13.812;2023-08-12T08:24:51;51372.03;;;-146.96;48.62
39105;BME280;46464;51.154;13.812;2023-08-12T08:27:24;51353.72;;;-146.96;47.53
39105;BME280;46464;51.154;13.812;2023-08-12T08:29:53;51347.59;;;-146.96;48.70
39105;BME280;46464;51.154;13.812;2023-08-12T08:32:23;51343.53;;;-146.96;48.66
39105;BME280;46464;51.154;13.812;2023-08-12T08:34:50;51331.34;;;-146.96;47.09
39105;BME280;46464;51.154;13.812;2023-08-12T08:37:16;51361.84;;;-146.96;47.69
39105;BME280;46464;51.154;13.812;2023-08-12T08:39:46;51302.84;;;-146.96;46.15
39105;BME280;46464;51.154;13.812;2023-08-12T08:42:15;51306.91;;;-146.96;45.73
39105;BME280;46464;51.154;13.812;2023-08-12T08:44:48;51290.66;;;-146.96;44.87
39105;BME280;46464;51.154;13.812;2023-08-12T08:47:23;51325.22;;;-146.96;46.27
39105;BME280;46464;51.154;13.812;2023-08-12T08:50:08;51292.69;;;-146.96;45.69
39105;BME280;46464;51.154;13.812;2023-08-12T08:52:39;51264.19;;;-146.96;46.32
39105;BME280;46464;51.154;13.812;2023-08-12T08:55:14;51294.72;;;-146.96;44.09
39105;BME280;46464;51.154;13.812;2023-08-12T08:57:43;51306.91;;;-146.96;45.99
39105;BME280;46464;51.154;13.812;2023-08-12T09:00:16;51282.50;;;-146.96;44.46
39105;BME280;46464;51.154;13.812;2023-08-12T09:02:48;51262.16;;;-146.96;45.15
39105;BME280;46464;51.154;13.812;2023-08-12T09:05:44;51270.31;;;-146.96;44.26
39105;BME280;46464;51.154;13.812;2023-08-12T09:08:17;51264.19;;;-146.96;43.75
39105;BME280;46464;51.154;13.812;2023-08-12T09:10:48;51270.31;;;-146.96;43.78
39105;BME280;46464;51.154;13.812;2023-08-12T09:13:18;51258.09;;;-146.96;43.78
39105;BME280;46464;51.154;13.812;2023-08-12T09:15:50;51256.06;;;-146.96;46.05
39105;BME280;46464;51.154;13.812;2023-08-12T09:18:17;51229.63;;;-146.96;43.01
39105;BME280;46464;51.154;13.812;2023-08-12T09:20:48;51264.19;;;-146.96;46.39
39105;BME280;46464;51.154;13.812;2023-08-12T09:23:19;51209.28;;;-146.96;44.55
39105;BME280;46464;51.154;13.812;2023-08-12T09:25:57;51227.59;;;-146.96;43.70
39105;BME280;46464;51.154;13.812;2023-08-12T09:28:31;51199.09;;;-146.96;43.15
39105;BME280;46464;51.154;13.812;2023-08-12T09:30:58;51213.34;;;-146.96;40.83
39105;BME280;46464;51.154;13.812;2023-08-12T09:33:26;51174.69;;;-146.96;39.47
39105;BME280;46464;51.154;13.812;2023-08-12T09:35:54;51182.84;;;-146.96;39.50
39105;BME280;46464;51.154;13.812;2023-08-12T09:38:27;51176.72;;;-146.96;39.96
39105;BME280;46464;51.154;13.812;2023-08-12T09:41:01;51195.03;;;-146.96;39.55
39105;BME280;46464;51.154;13.812;2023-08-12T09:43:46;51219.44;;;-146.96;39.18
39105;BME280;46464;51.154;13.812;2023-08-12T09:46:14;51164.53;;;-146.96;39.90
39105;BME280;46464;51.154;13.812;2023-08-12T09:48:51;51203.19;;;-146.96;38.88
39105;BME280;46464;51.154;13.812;2023-08-12T09:51:23;51182.84;;;-146.96;41.42
39105;BME280;46464;51.154;13.812;2023-08-12T09:54:17;51182.84;;;-146.96;40.79
39105;BME280;46464;51.154;13.812;2023-08-12T09:56:52;51205.22;;;-146.96;40.64
39105;BME280;46464;51.154;13.812;2023-08-12T09:59:29;51217.41;;;-146.96;39.90
39105;BME280;46464;51.154;13.812;2023-08-12T10:02:01;51190.97;;;-146.96;39.75
39105;BME280;46464;51.154;13.812;2023-08-12T10:08:02;51223.53;;;-146.96;41.58
39105;BME280;46464;51.154;13.812;2023-08-12T10:10:35;51190.97;;;-146.96;42.17
39105;BME280;46464;51.154;13.812;2023-08-12T10:13:02;51211.31;;;-146.96;40.53
39105;BME280;46464;51.154;13.812;2023-08-12T10:15:36;51215.38;;;-146.96;41.03
39105;BME280;46464;51.154;13.812;2023-08-12T10:18:16;51237.75;;;-146.96;41.29
39105;BME280;46464;51.154;13.812;2023-08-12T10:21:11;51235.72;;;-146.96;39.90
39105;BME280;46464;51.154;13.812;2023-08-12T10:23:48;51213.34;;;-146.96;39.00
39105;BME280;46464;51.154;13.812;2023-08-12T10:26:28;51203.19;;;-146.96;38.93
39105;BME280;46464;51.154;13.812;2023-08-12T10:28:56;51193.00;;;-146.96;39.38
39105;BME280;46464;51.154;13.812;2023-08-12T10:31:28;51201.16;;;-146.96;38.23
39105;BME280;46464;51.154;13.812;2023-08-12T10:33:58;51197.06;;;-146.96;39.01
39105;BME280;46464;51.154;13.812;2023-08-12T10:36:31;51227.59;;;-146.96;39.90
39105;BME280;46464;51.154;13.812;2023-08-12T10:39:24;51264.19;;;-146.96;40.19
39105;BME280;46464;51.154;13.812;2023-08-12T10:41:56;51215.38;;;-146.96;39.35
39105;BME280;46464;51.154;13.812;2023-08-12T10:44:53;51243.88;;;-146.96;38.92
39105;BME280;46464;51.154;13.812;2023-08-12T10:47:30;51254.03;;;-146.96;39.24
39105;BME280;46464;51.154;13.812;2023-08-12T10:50:03;51266.25;;;-146.96;40.34
39105;BME280;46464;51.154;13.812;2023-08-12T10:52:33;51221.47;;;-146.96;39.04
39105;BME280;46464;51.154;13.812;2023-08-12T10:55:25;51237.75;;;-146.96;38.90
39105;BME280;46464;51.154;13.812;2023-08-12T10:57:59;51227.59;;;-146.96;38.95
39105;BME280;46464;51.154;13.812;2023-08-12T11:00:29;51249.97;;;-146.96;39.24
39105;BME280;46464;51.154;13.812;2023-08-12T11:03:05;51256.06;;;-146.96;38.97
39105;BME280;46464;51.154;13.812;2023-08-12T11:05:38;51284.53;;;-146.96;40.07
39105;BME280;46464;51.154;13.812;2023-08-12T11:08:11;51256.06;;;-146.96;40.02
39105;BME280;46464;51.154;13.812;2023-08-12T11:14:26;51258.09;;;-146.96;40.08
39105;BME280;46464;51.154;13.812;2023-08-12T11:16:59;51245.91;;;-146.96;40.13
39105;BME280;46464;51.154;13.812;2023-08-12T11:19:28;51280.47;;;-146.96;41.25
39105;BME280;46464;51.154;13.812;2023-08-12T11:22:04;51284.53;;;-146.96;40.81
39105;BME280;46464;51.154;13.812;2023-08-12T11:24:44;51280.47;;;-146.96;40.82
39105;BME280;46464;51.154;13.812;2023-08-12T11:27:19;51276.41;;;-146.96;41.07
39105;BME280;46464;51.154;13.812;2023-08-12T11:29:54;51272.34;;;-146.96;41.28
39105;BME280;46464;51.154;13.812;2023-08-12T11:32:23;51274.38;;;-146.96;41.77
39105;BME280;46464;51.154;13.812;2023-08-12T11:34:56;51284.53;;;-146.96;42.00
39105;BME280;46464;51.154;13.812;2023-08-12T11:37:31;51264.19;;;-146.96;41.50
39105;BME280;46464;51.154;13.812;2023-08-12T11:40:05;51239.78;;;-146.96;42.27
39105;BME280;46464;51.154;13.812;2023-08-12T11:43:15;51286.59;;;-146.96;42.67
39105;BME280;46464;51.154;13.812;2023-08-12T11:45:51;51264.19;;;-146.96;41.87
39105;BME280;46464;51.154;13.812;2023-08-12T11:48:20;51268.28;;;-146.96;42.25
39105;BME280;46464;51.154;13.812;2023-08-12T11:50:55;51235.72;;;-146.96;42.31
39105;BME280;46464;51.154;13.812;2023-08-12T11:53:25;51266.25;;;-146.96;42.84
39105;BME280;46464;51.154;13.812;2023-08-12T11:55:55;51227.59;;;-146.96;42.21
39105;BME280;46464;51.154;13.812;2023-08-12T11:58:25;51278.44;;;-146.96;42.36
39105;BME280;46464;51.154;13.812;2023-08-12T12:01:24;51278.44;;;-146.96;41.83
39105;BME280;46464;51.154;13.812;2023-08-12T12:04:02;51298.78;;;-146.96;42.26
39105;BME280;46464;51.154;13.812;2023-08-12T12:06:36;51264.19;;;-146.96;42.12
39105;BME280;46464;51.154;13.812;2023-08-12T12:09:07;51266.25;;;-146.96;45.82
39105;BME280;46464;51.154;13.812;2023-08-12T12:11:38;51294.72;;;-146.96;42.95
39105;BME280;46464;51.154;13.812;2023-08-12T12:14:16;51260.13;;;-146.96;42.61
39105;BME280;46464;51.154;13.812;2023-08-12T12:16:48;51245.91;;;-146.96;44.21
39105;BME280;46464;51.154;13.812;2023-08-12T12:19:28;51252.00;;;-146.96;43.44
39105;BME280;46464;51.154;13.812;2023-08-12T12:25:40;51199.09;;;-146.96;41.91
39105;BME280;46464;51.154;13.812;2023-08-12T12:28:07;51231.66;;;-146.96;41.50
39105;BME280;46464;51.154;13.812;2023-08-12T12:30:34;51227.59;;;-146.96;41.20
39105;BME280;46464;51.154;13.812;2023-08-12T12:33:18;51201.16;;;-146.96;41.16
39105;BME280;46464;51.154;13.812;2023-08-12T12:35:48;51203.19;;;-146.96;42.03
39105;BME280;46464;51.154;13.812;2023-08-12T12:38:29;51176.72;;;-146.96;40.57
39105;BME280;46464;51.154;13.812;2023-08-12T12:41:01;51195.03;;;-146.96;40.74
39105;BME280;46464;51.154;13.812;2023-08-12T12:43:30;51205.22;;;-146.96;41.10
39105;BME280;46464;51.154;13.812;2023-08-12T12:46:06;51197.06;;;-146.96;40.34
39105;BME280;46464;51.154;13.812;2023-08-12T12:48:43;51219.44;;;-146.96;40.12
39105;BME280;46464;51.154;13.812;2023-08-12T12:51:12;51211.31;;;-146.96;40.21
39105;BME280;46464;51.154;13.812;2023-08-12T12:53:41;51178.78;;;-146.96;42.37
39105;BME280;46464;51.154;13.812;2023-08-12T12:56:15;51190.97;;;-146.96;40.72
39105;BME280;46464;51.154;13.812;2023-08-12T12:58:42;51182.84;;;-146.96;40.20
39105;BME280;46464;51.154;13.812;2023-08-12T13:01:25;51170.63;;;-146.96;41.83
39105;BME280;46464;51.154;13.812;2023-08-12T13:03:57;51164.53;;;-146.96;41.19
39105;BME280;46464;51.154;13.812;2023-08-12T13:06:52;51158.44;;;-146.96;39.54
39105;BME280;46464;51.154;13.812;2023-08-12T13:09:26;51158.44;;;-146.96;40.26